sensor_id;sensor_type;location;lat;lon;timestamp;temperature;humidity
20815;DHT22;10568;48.176;16.316;2023-05-27T00:00:46;15.00;99.90
20815;DHT22;10568;48.176;16.316;2023-05-27T00:03:13;14.90;99.90
20815;DHT22;10568;48.176;16.316;2023-05-27T00:05:39;14.90;99.90
20815;DHT22;10568;48.176;16.316;2023-05-27T00:08:05;14.80;99.90
20815;DHT22;10568;48.176;16.316;2023-05-27T00:10:31;14.80;99.90
20815;DHT22;10568;48.176;16.316;2023-05-27T00:12:57;14.70;99.90
20815;DHT22;10568;48.176;16.316;2023-05-27T00:15:22;14.70;99.90
20815;DHT22;10568;48.176;16.316;2023-05-27T00:17:48;14.70;99.90
20815;DHT22;10568;48.176;16.316;2023-05-27T00:20:15;14.70;99.90
20815;DHT22;10568;48.176;16.316;2023-05-27T00:22:41;14.70;99.90
20815;DHT22;10568;48.176;16.316;2023-05-27T00:25:07;14.60;99.90
20815;DHT22;10568;48.176;16.316;2023-05-27T00:27:33;14.70;99.90
20815;DHT22;10568;48.176;16.316;2023-05-27T00:29:59;14.70;99.90
20815;DHT22;10568;48.176;16.316;2023-05-27T00:32:25;14.60;99.90
20815;DHT22;10568;48.176;16.316;2023-05-27T00:34:51;14.70;99.90
20815;DHT22;10568;48.176;16.316;2023-05-27T00:37:16;14.60;99.90
20815;DHT22;10568;48.176;16.316;2023-05-27T00:39:42;14.60;99.90
20815;DHT22;10568;48.176;16.316;2023-05-27T00:42:20;14.60;99.90
20815;DHT22;10568;48.176;16.316;2023-05-27T00:44:46;14.50;99.90
20815;DHT22;10568;48.176;16.316;2023-05-27T00:47:12;14.50;99.90
20815;DHT22;10568;48.176;16.316;2023-05-27T00:49:38;14.50;99.90
20815;DHT22;10568;48.176;16.316;2023-05-27T00:52:04;14.50;99.90
20815;DHT22;10568;48.176;16.316;2023-05-27T00:54:30;14.60;99.90
20815;DHT22;10568;48.176;16.316;2023-05-27T00:57:00;14.50;99.90
20815;DHT22;10568;48.176;16.316;2023-05-27T00:59:28;14.50;99.90
20815;DHT22;10568;48.176;16.316;2023-05-27T01:01:57;14.40;99.90
20815;DHT22;10568;48.176;16.316;2023-05-27T01:04:26;14.50;99.90
20815;DHT22;10568;48.176;16.316;2023-05-27T01:07:17;14.40;99.90
20815;DHT22;10568;48.176;16.316;2023-05-27T01:10:15;14.50;99.90
20815;DHT22;10568;48.176;16.316;2023-05-27T01:12:52;14.50;99.90
20815;DHT22;10568;48.176;16.316;2023-05-27T01:15:19;14.40;99.90
20815;DHT22;10568;48.176;16.316;2023-05-27T01:17:47;14.40;99.90
20815;DHT22;10568;48.176;16.316;2023-05-27T01:20:16;14.40;99.90
20815;DHT22;10568;48.176;16.316;2023-05-27T01:22:43;14.30;99.90
20815;DHT22;10568;48.176;16.316;2023-05-27T01:25:09;14.30;99.90
20815;DHT22;10568;48.176;16.316;2023-05-27T01:27:35;14.20;99.90
20815;DHT22;10568;48.176;16.316;2023-05-27T01:30:02;14.20;99.90
20815;DHT22;10568;48.176;16.316;2023-05-27T01:32:33;14.20;99.90
20815;DHT22;10568;48.176;16.316;2023-05-27T01:35:25;14.10;99.90
20815;DHT22;10568;48.176;16.316;2023-05-27T01:37:54;14.00;99.90
20815;DHT22;10568;48.176;16.316;2023-05-27T01:40:21;14.00;99.90
20815;DHT22;10568;48.176;16.316;2023-05-27T01:42:48;13.90;99.90
20815;DHT22;10568;48.176;16.316;2023-05-27T01:45:14;13.80;99.90
20815;DHT22;10568;48.176;16.316;2023-05-27T01:47:43;13.80;99.90
20815;DHT22;10568;48.176;16.316;2023-05-27T01:50:09;13.70;99.90
20815;DHT22;10568;48.176;16.316;2023-05-27T01:52:35;13.60;99.90
20815;DHT22;10568;48.176;16.316;2023-05-27T01:55:01;13.50;99.90
20815;DHT22;10568;48.176;16.316;2023-05-27T01:57:27;13.50;99.90
20815;DHT22;10568;48.176;16.316;2023-05-27T01:59:52;13.50;99.90
20815;DHT22;10568;48.176;16.316;2023-05-27T02:02:18;13.40;99.90
20815;DHT22;10568;48.176;16.316;2023-05-27T02:04:44;13.30;99.90
20815;DHT22;10568;48.176;16.316;2023-05-27T02:07:09;13.20;99.90
20815;DHT22;10568;48.176;16.316;2023-05-27T02:09:36;13.10;99.90
20815;DHT22;10568;48.176;16.316;2023-05-27T02:12:02;13.10;99.90
20815;DHT22;10568;48.176;16.316;2023-05-27T02:14:28;13.00;99.90
20815;DHT22;10568;48.176;16.316;2023-05-27T02:16:53;12.90;99.90
20815;DHT22;10568;48.176;16.316;2023-05-27T02:19:20;12.90;99.90
20815;DHT22;10568;48.176;16.316;2023-05-27T02:21:46;12.90;99.90
20815;DHT22;10568;48.176;16.316;2023-05-27T02:24:17;12.90;99.90
20815;DHT22;10568;48.176;16.316;2023-05-27T02:26:43;12.80;99.90
20815;DHT22;10568;48.176;16.316;2023-05-27T02:29:08;12.80;99.90
20815;DHT22;10568;48.176;16.316;2023-05-27T02:31:34;12.70;99.90
20815;DHT22;10568;48.176;16.316;2023-05-27T02:34:00;12.80;99.90
20815;DHT22;10568;48.176;16.316;2023-05-27T02:36:26;12.70;99.90
20815;DHT22;10568;48.176;16.316;2023-05-27T02:38:51;12.70;99.90
20815;DHT22;10568;48.176;16.316;2023-05-27T02:41:17;12.70;99.90
20815;DHT22;10568;48.176;16.316;2023-05-27T02:43:43;12.60;99.90
20815;DHT22;10568;48.176;16.316;2023-05-27T02:46:08;12.60;99.90
20815;DHT22;10568;48.176;16.316;2023-05-27T02:48:34;12.60;99.90
20815;DHT22;10568;48.176;16.316;2023-05-27T02:51:00;12.50;99.90
20815;DHT22;10568;48.176;16.316;2023-05-27T02:53:25;12.50;99.90
20815;DHT22;10568;48.176;16.316;2023-05-27T02:55:52;12.50;99.90
20815;DHT22;10568;48.176;16.316;2023-05-27T02:58:17;12.40;99.90
20815;DHT22;10568;48.176;16.316;2023-05-27T03:00:43;12.40;99.90
20815;DHT22;10568;48.176;16.316;2023-05-27T03:03:09;12.40;99.90
20815;DHT22;10568;48.176;16.316;2023-05-27T03:05:35;12.40;99.90
20815;DHT22;10568;48.176;16.316;2023-05-27T03:08:02;12.40;99.90
20815;DHT22;10568;48.176;16.316;2023-05-27T03:10:28;12.30;99.90
20815;DHT22;10568;48.176;16.316;2023-05-27T03:12:54;12.30;99.90
20815;DHT22;10568;48.176;16.316;2023-05-27T03:15:22;12.30;99.90
20815;DHT22;10568;48.176;16.316;2023-05-27T03:17:48;12.30;99.90
20815;DHT22;10568;48.176;16.316;2023-05-27T03:20:14;12.30;99.90
20815;DHT22;10568;48.176;16.316;2023-05-27T03:22:42;12.30;99.90
20815;DHT22;10568;48.176;16.316;2023-05-27T03:25:08;12.40;99.90
20815;DHT22;10568;48.176;16.316;2023-05-27T03:27:34;12.40;99.90
20815;DHT22;10568;48.176;16.316;2023-05-27T03:30:00;12.40;99.90
20815;DHT22;10568;48.176;16.316;2023-05-27T03:32:25;12.40;99.90
20815;DHT22;10568;48.176;16.316;2023-05-27T03:34:51;12.50;99.90
20815;DHT22;10568;48.176;16.316;2023-05-27T03:37:17;12.40;99.90
20815;DHT22;10568;48.176;16.316;2023-05-27T03:39:43;12.50;99.90
20815;DHT22;10568;48.176;16.316;2023-05-27T03:42:09;12.70;99.90
20815;DHT22;10568;48.176;16.316;2023-05-27T03:44:35;12.80;99.90
20815;DHT22;10568;48.176;16.316;2023-05-27T03:47:04;12.80;99.90
20815;DHT22;10568;48.176;16.316;2023-05-27T03:49:30;12.80;99.90
20815;DHT22;10568;48.176;16.316;2023-05-27T03:51:56;12.80;99.90
20815;DHT22;10568;48.176;16.316;2023-05-27T03:54:22;12.80;99.90
20815;DHT22;10568;48.176;16.316;2023-05-27T03:56:47;12.90;99.90
20815;DHT22;10568;48.176;16.316;2023-05-27T03:59:13;13.00;99.90
20815;DHT22;10568;48.176;16.316;2023-05-27T04:01:39;13.10;99.90
20815;DHT22;10568;48.176;16.316;2023-05-27T04:04:06;13.20;99.90
20815;DHT22;10568;48.176;16.316;2023-05-27T04:06:32;13.20;99.90
20815;DHT22;10568;48.176;16.316;2023-05-27T04:08:58;13.30;99.90
20815;DHT22;10568;48.176;16.316;2023-05-27T04:11:26;13.30;99.90
20815;DHT22;10568;48.176;16.316;2023-05-27T04:13:52;13.40;99.90
20815;DHT22;10568;48.176;16.316;2023-05-27T04:16:20;13.40;99.90
20815;DHT22;10568;48.176;16.316;2023-05-27T04:18:46;13.40;99.90
20815;DHT22;10568;48.176;16.316;2023-05-27T04:21:15;13.50;99.90
20815;DHT22;10568;48.176;16.316;2023-05-27T04:23:41;13.50;99.90
20815;DHT22;10568;48.176;16.316;2023-05-27T04:26:06;13.50;99.90
20815;DHT22;10568;48.176;16.316;2023-05-27T04:28:32;13.60;99.90
20815;DHT22;10568;48.176;16.316;2023-05-27T04:30:59;13.60;99.90
20815;DHT22;10568;48.176;16.316;2023-05-27T04:33:25;13.60;99.90
20815;DHT22;10568;48.176;16.316;2023-05-27T04:35:52;13.70;99.90
20815;DHT22;10568;48.176;16.316;2023-05-27T04:38:20;13.70;99.90
20815;DHT22;10568;48.176;16.316;2023-05-27T04:40:49;13.80;99.90
20815;DHT22;10568;48.176;16.316;2023-05-27T04:43:18;13.80;99.90
20815;DHT22;10568;48.176;16.316;2023-05-27T04:45:45;13.90;99.90
20815;DHT22;10568;48.176;16.316;2023-05-27T04:48:11;13.90;99.90
20815;DHT22;10568;48.176;16.316;2023-05-27T04:50:37;13.90;99.90
20815;DHT22;10568;48.176;16.316;2023-05-27T04:53:03;14.00;99.90
20815;DHT22;10568;48.176;16.316;2023-05-27T04:55:29;14.00;99.90
20815;DHT22;10568;48.176;16.316;2023-05-27T04:57:56;14.10;99.90
20815;DHT22;10568;48.176;16.316;2023-05-27T05:00:22;14.10;99.90
20815;DHT22;10568;48.176;16.316;2023-05-27T05:03:06;14.20;99.90
20815;DHT22;10568;48.176;16.316;2023-05-27T05:05:34;14.20;99.90
20815;DHT22;10568;48.176;16.316;2023-05-27T05:08:00;14.20;99.90
20815;DHT22;10568;48.176;16.316;2023-05-27T05:10:25;14.30;99.90
20815;DHT22;10568;48.176;16.316;2023-05-27T05:12:52;14.40;99.90
20815;DHT22;10568;48.176;16.316;2023-05-27T05:15:18;14.40;99.90
20815;DHT22;10568;48.176;16.316;2023-05-27T05:17:44;14.50;99.90
20815;DHT22;10568;48.176;16.316;2023-05-27T05:20:10;14.60;99.90
20815;DHT22;10568;48.176;16.316;2023-05-27T05:22:36;14.70;99.90
20815;DHT22;10568;48.176;16.316;2023-05-27T05:25:02;14.80;99.90
20815;DHT22;10568;48.176;16.316;2023-05-27T05:27:29;14.80;99.90
20815;DHT22;10568;48.176;16.316;2023-05-27T05:29:54;14.70;99.90
20815;DHT22;10568;48.176;16.316;2023-05-27T05:32:20;14.80;99.90
20815;DHT22;10568;48.176;16.316;2023-05-27T05:34:46;15.00;99.90
20815;DHT22;10568;48.176;16.316;2023-05-27T05:37:12;14.90;99.90
20815;DHT22;10568;48.176;16.316;2023-05-27T05:39:37;14.90;99.90
20815;DHT22;10568;48.176;16.316;2023-05-27T05:42:03;15.00;99.90
20815;DHT22;10568;48.176;16.316;2023-05-27T05:44:30;15.00;99.90
20815;DHT22;10568;48.176;16.316;2023-05-27T05:46:56;15.10;99.90
20815;DHT22;10568;48.176;16.316;2023-05-27T05:49:21;15.10;99.90
20815;DHT22;10568;48.176;16.316;2023-05-27T05:51:47;15.20;99.90
20815;DHT22;10568;48.176;16.316;2023-05-27T05:54:13;15.30;99.90
20815;DHT22;10568;48.176;16.316;2023-05-27T05:56:39;15.30;99.90
20815;DHT22;10568;48.176;16.316;2023-05-27T05:59:05;15.40;99.90
20815;DHT22;10568;48.176;16.316;2023-05-27T06:01:31;15.60;99.90
20815;DHT22;10568;48.176;16.316;2023-05-27T06:03:56;16.00;99.90
20815;DHT22;10568;48.176;16.316;2023-05-27T06:06:23;16.00;99.90
20815;DHT22;10568;48.176;16.316;2023-05-27T06:08:49;16.10;99.90
20815;DHT22;10568;48.176;16.316;2023-05-27T06:11:14;16.10;99.90
20815;DHT22;10568;48.176;16.316;2023-05-27T06:13:41;16.20;99.90
20815;DHT22;10568;48.176;16.316;2023-05-27T06:16:06;16.20;99.90
20815;DHT22;10568;48.176;16.316;2023-05-27T06:18:32;16.40;99.90
20815;DHT22;10568;48.176;16.316;2023-05-27T06:20:58;16.50;99.90
20815;DHT22;10568;48.176;16.316;2023-05-27T06:23:29;16.60;99.90
20815;DHT22;10568;48.176;16.316;2023-05-27T06:25:54;17.10;99.90
20815;DHT22;10568;48.176;16.316;2023-05-27T06:28:20;17.80;99.90
20815;DHT22;10568;48.176;16.316;2023-05-27T06:30:46;18.30;99.90
20815;DHT22;10568;48.176;16.316;2023-05-27T06:33:11;18.70;99.90
20815;DHT22;10568;48.176;16.316;2023-05-27T06:35:37;18.80;99.90
20815;DHT22;10568;48.176;16.316;2023-05-27T06:38:03;19.10;99.90
20815;DHT22;10568;48.176;16.316;2023-05-27T06:40:28;19.50;99.90
20815;DHT22;10568;48.176;16.316;2023-05-27T06:42:54;19.30;99.90
20815;DHT22;10568;48.176;16.316;2023-05-27T06:45:20;19.30;99.90
20815;DHT22;10568;48.176;16.316;2023-05-27T06:47:46;19.60;99.90
20815;DHT22;10568;48.176;16.316;2023-05-27T06:50:12;19.90;99.90
20815;DHT22;10568;48.176;16.316;2023-05-27T06:52:37;19.70;99.90
20815;DHT22;10568;48.176;16.316;2023-05-27T06:55:03;19.70;99.90
20815;DHT22;10568;48.176;16.316;2023-05-27T06:57:29;19.60;99.90
20815;DHT22;10568;48.176;16.316;2023-05-27T06:59:55;20.00;99.90
20815;DHT22;10568;48.176;16.316;2023-05-27T07:02:21;20.20;99.90
20815;DHT22;10568;48.176;16.316;2023-05-27T07:04:47;20.40;99.90
20815;DHT22;10568;48.176;16.316;2023-05-27T07:07:12;20.80;99.90
20815;DHT22;10568;48.176;16.316;2023-05-27T07:09:38;20.90;99.90
20815;DHT22;10568;48.176;16.316;2023-05-27T07:12:04;21.10;99.50
20815;DHT22;10568;48.176;16.316;2023-05-27T07:14:33;21.30;99.90
20815;DHT22;10568;48.176;16.316;2023-05-27T07:16:59;21.30;99.90
20815;DHT22;10568;48.176;16.316;2023-05-27T07:19:25;21.20;99.90
20815;DHT22;10568;48.176;16.316;2023-05-27T07:21:50;21.60;99.90
20815;DHT22;10568;48.176;16.316;2023-05-27T07:24:17;21.50;99.50
20815;DHT22;10568;48.176;16.316;2023-05-27T07:26:42;21.80;99.20
20815;DHT22;10568;48.176;16.316;2023-05-27T07:29:08;22.00;99.40
20815;DHT22;10568;48.176;16.316;2023-05-27T07:31:34;21.80;98.00
20815;DHT22;10568;48.176;16.316;2023-05-27T07:34:00;21.80;99.50
20815;DHT22;10568;48.176;16.316;2023-05-27T07:36:26;22.10;98.10
20815;DHT22;10568;48.176;16.316;2023-05-27T07:38:51;22.10;99.70
20815;DHT22;10568;48.176;16.316;2023-05-27T07:41:17;22.60;99.90
20815;DHT22;10568;48.176;16.316;2023-05-27T07:43:43;22.60;97.90
20815;DHT22;10568;48.176;16.316;2023-05-27T07:46:09;22.50;96.40
20815;DHT22;10568;48.176;16.316;2023-05-27T07:48:35;21.90;96.60
20815;DHT22;10568;48.176;16.316;2023-05-27T07:51:01;22.30;96.30
20815;DHT22;10568;48.176;16.316;2023-05-27T07:53:26;22.30;96.90
20815;DHT22;10568;48.176;16.316;2023-05-27T07:55:52;22.30;98.70
20815;DHT22;10568;48.176;16.316;2023-05-27T07:58:18;22.40;97.60
20815;DHT22;10568;48.176;16.316;2023-05-27T08:00:44;22.50;96.20
20815;DHT22;10568;48.176;16.316;2023-05-27T08:03:09;22.50;96.00
20815;DHT22;10568;48.176;16.316;2023-05-27T08:05:36;22.70;99.10
20815;DHT22;10568;48.176;16.316;2023-05-27T08:08:01;22.80;97.40
20815;DHT22;10568;48.176;16.316;2023-05-27T08:10:27;22.60;96.80
20815;DHT22;10568;48.176;16.316;2023-05-27T08:12:53;22.70;99.40
20815;DHT22;10568;48.176;16.316;2023-05-27T08:15:19;22.70;95.60
20815;DHT22;10568;48.176;16.316;2023-05-27T08:17:44;22.80;95.90
20815;DHT22;10568;48.176;16.316;2023-05-27T08:20:11;22.80;98.00
20815;DHT22;10568;48.176;16.316;2023-05-27T08:22:37;22.40;95.30
20815;DHT22;10568;48.176;16.316;2023-05-27T08:25:04;23.10;97.60
20815;DHT22;10568;48.176;16.316;2023-05-27T08:27:44;22.90;94.30
20815;DHT22;10568;48.176;16.316;2023-05-27T08:30:11;22.40;93.90
20815;DHT22;10568;48.176;16.316;2023-05-27T08:32:38;22.60;96.20
20815;DHT22;10568;48.176;16.316;2023-05-27T08:35:03;22.60;95.30
20815;DHT22;10568;48.176;16.316;2023-05-27T08:37:30;22.60;98.40
20815;DHT22;10568;48.176;16.316;2023-05-27T08:39:55;22.70;99.90
20815;DHT22;10568;48.176;16.316;2023-05-27T08:42:24;22.50;95.60
20815;DHT22;10568;48.176;16.316;2023-05-27T08:44:50;22.80;96.00
20815;DHT22;10568;48.176;16.316;2023-05-27T08:47:16;23.40;97.40
20815;DHT22;10568;48.176;16.316;2023-05-27T08:49:41;23.50;96.40
20815;DHT22;10568;48.176;16.316;2023-05-27T08:52:09;23.10;92.30
20815;DHT22;10568;48.176;16.316;2023-05-27T08:54:36;23.50;94.90
20815;DHT22;10568;48.176;16.316;2023-05-27T08:57:07;23.60;97.40
20815;DHT22;10568;48.176;16.316;2023-05-27T08:59:34;23.60;92.80
20815;DHT22;10568;48.176;16.316;2023-05-27T09:02:00;23.80;97.00
20815;DHT22;10568;48.176;16.316;2023-05-27T09:04:28;23.50;93.40
20815;DHT22;10568;48.176;16.316;2023-05-27T09:06:54;23.30;94.00
20815;DHT22;10568;48.176;16.316;2023-05-27T09:09:20;23.60;94.70
20815;DHT22;10568;48.176;16.316;2023-05-27T09:11:45;23.20;93.20
20815;DHT22;10568;48.176;16.316;2023-05-27T09:14:20;23.70;96.00
20815;DHT22;10568;48.176;16.316;2023-05-27T09:16:46;23.80;94.80
20815;DHT22;10568;48.176;16.316;2023-05-27T09:19:16;23.90;94.00
20815;DHT22;10568;48.176;16.316;2023-05-27T09:21:42;24.20;96.90
20815;DHT22;10568;48.176;16.316;2023-05-27T09:24:09;23.90;94.30
20815;DHT22;10568;48.176;16.316;2023-05-27T09:26:35;24.00;97.40
20815;DHT22;10568;48.176;16.316;2023-05-27T09:29:06;23.90;94.20
20815;DHT22;10568;48.176;16.316;2023-05-27T09:31:39;23.80;92.40
20815;DHT22;10568;48.176;16.316;2023-05-27T09:34:24;23.80;93.20
20815;DHT22;10568;48.176;16.316;2023-05-27T09:36:50;24.10;90.60
20815;DHT22;10568;48.176;16.316;2023-05-27T09:39:22;24.00;92.10
20815;DHT22;10568;48.176;16.316;2023-05-27T09:41:54;23.80;96.70
20815;DHT22;10568;48.176;16.316;2023-05-27T09:44:24;23.70;93.00
20815;DHT22;10568;48.176;16.316;2023-05-27T09:46:53;23.40;90.30
20815;DHT22;10568;48.176;16.316;2023-05-27T09:49:20;23.60;92.90
20815;DHT22;10568;48.176;16.316;2023-05-27T09:51:47;24.00;93.60
20815;DHT22;10568;48.176;16.316;2023-05-27T09:54:17;23.90;92.30
20815;DHT22;10568;48.176;16.316;2023-05-27T09:56:44;24.10;92.30
20815;DHT22;10568;48.176;16.316;2023-05-27T09:59:11;24.00;90.80
20815;DHT22;10568;48.176;16.316;2023-05-27T10:01:37;24.00;93.50
20815;DHT22;10568;48.176;16.316;2023-05-27T10:04:04;23.90;91.10
20815;DHT22;10568;48.176;16.316;2023-05-27T10:06:31;24.20;94.90
20815;DHT22;10568;48.176;16.316;2023-05-27T10:08:57;24.10;91.30
20815;DHT22;10568;48.176;16.316;2023-05-27T10:11:27;23.60;91.00
20815;DHT22;10568;48.176;16.316;2023-05-27T10:13:56;23.80;91.80
20815;DHT22;10568;48.176;16.316;2023-05-27T10:16:22;24.10;91.40
20815;DHT22;10568;48.176;16.316;2023-05-27T10:18:53;24.60;91.30
20815;DHT22;10568;48.176;16.316;2023-05-27T10:21:19;24.90;95.70
20815;DHT22;10568;48.176;16.316;2023-05-27T10:24:09;24.60;93.70
20815;DHT22;10568;48.176;16.316;2023-05-27T10:26:41;24.70;90.50
20815;DHT22;10568;48.176;16.316;2023-05-27T10:31:48;24.30;85.00
20815;DHT22;10568;48.176;16.316;2023-05-27T10:34:15;24.30;85.60
20815;DHT22;10568;48.176;16.316;2023-05-27T10:36:40;24.50;94.70
20815;DHT22;10568;48.176;16.316;2023-05-27T10:39:16;24.60;92.50
20815;DHT22;10568;48.176;16.316;2023-05-27T10:44:10;24.50;86.70
20815;DHT22;10568;48.176;16.316;2023-05-27T10:46:43;24.30;84.80
20815;DHT22;10568;48.176;16.316;2023-05-27T10:49:10;24.50;88.70
20815;DHT22;10568;48.176;16.316;2023-05-27T10:51:37;24.70;83.10
20815;DHT22;10568;48.176;16.316;2023-05-27T10:54:03;24.80;87.90
20815;DHT22;10568;48.176;16.316;2023-05-27T10:56:30;24.60;83.30
20815;DHT22;10568;48.176;16.316;2023-05-27T10:58:56;24.50;84.70
20815;DHT22;10568;48.176;16.316;2023-05-27T11:01:23;24.90;91.50
20815;DHT22;10568;48.176;16.316;2023-05-27T11:03:52;25.10;84.60
20815;DHT22;10568;48.176;16.316;2023-05-27T11:06:19;25.10;81.90
20815;DHT22;10568;48.176;16.316;2023-05-27T11:08:45;25.30;84.50
20815;DHT22;10568;48.176;16.316;2023-05-27T11:11:12;25.10;83.90
20815;DHT22;10568;48.176;16.316;2023-05-27T11:13:44;24.70;84.00
20815;DHT22;10568;48.176;16.316;2023-05-27T11:16:12;24.60;78.70
20815;DHT22;10568;48.176;16.316;2023-05-27T11:18:38;24.10;83.30
20815;DHT22;10568;48.176;16.316;2023-05-27T11:21:05;24.80;82.20
20815;DHT22;10568;48.176;16.316;2023-05-27T11:23:57;24.40;81.50
20815;DHT22;10568;48.176;16.316;2023-05-27T11:26:23;25.00;83.10
20815;DHT22;10568;48.176;16.316;2023-05-27T11:28:53;25.40;90.40
20815;DHT22;10568;48.176;16.316;2023-05-27T11:31:29;25.20;87.20
20815;DHT22;10568;48.176;16.316;2023-05-27T11:33:55;24.70;90.10
20815;DHT22;10568;48.176;16.316;2023-05-27T11:36:21;25.40;86.30
20815;DHT22;10568;48.176;16.316;2023-05-27T11:41:13;25.70;89.30
20815;DHT22;10568;48.176;16.316;2023-05-27T11:44:07;25.70;82.70
20815;DHT22;10568;48.176;16.316;2023-05-27T11:46:42;25.40;90.00
20815;DHT22;10568;48.176;16.316;2023-05-27T11:49:12;25.50;82.50
20815;DHT22;10568;48.176;16.316;2023-05-27T11:51:39;25.50;81.50
20815;DHT22;10568;48.176;16.316;2023-05-27T11:54:05;25.90;81.90
20815;DHT22;10568;48.176;16.316;2023-05-27T11:56:32;25.60;85.20
20815;DHT22;10568;48.176;16.316;2023-05-27T11:58:58;25.60;80.00
20815;DHT22;10568;48.176;16.316;2023-05-27T12:01:24;25.70;90.20
20815;DHT22;10568;48.176;16.316;2023-05-27T12:03:51;25.80;85.40
20815;DHT22;10568;48.176;16.316;2023-05-27T12:06:16;25.70;87.20
20815;DHT22;10568;48.176;16.316;2023-05-27T12:08:42;25.20;80.60
20815;DHT22;10568;48.176;16.316;2023-05-27T12:11:08;25.50;85.00
20815;DHT22;10568;48.176;16.316;2023-05-27T12:13:34;25.70;75.60
20815;DHT22;10568;48.176;16.316;2023-05-27T12:16:00;25.50;81.20
20815;DHT22;10568;48.176;16.316;2023-05-27T12:18:26;24.80;79.30
20815;DHT22;10568;48.176;16.316;2023-05-27T12:20:51;25.40;81.70
20815;DHT22;10568;48.176;16.316;2023-05-27T12:23:17;25.60;86.40
20815;DHT22;10568;48.176;16.316;2023-05-27T12:25:43;25.50;82.60
20815;DHT22;10568;48.176;16.316;2023-05-27T12:28:09;25.40;77.40
20815;DHT22;10568;48.176;16.316;2023-05-27T12:30:38;25.50;79.00
20815;DHT22;10568;48.176;16.316;2023-05-27T12:33:05;25.70;77.30
20815;DHT22;10568;48.176;16.316;2023-05-27T12:35:32;25.90;84.80
20815;DHT22;10568;48.176;16.316;2023-05-27T12:37:58;25.90;87.70
20815;DHT22;10568;48.176;16.316;2023-05-27T12:40:25;26.10;85.80
20815;DHT22;10568;48.176;16.316;2023-05-27T12:42:51;26.30;84.90
20815;DHT22;10568;48.176;16.316;2023-05-27T12:45:17;26.30;83.70
20815;DHT22;10568;48.176;16.316;2023-05-27T12:47:43;26.60;79.40
20815;DHT22;10568;48.176;16.316;2023-05-27T12:50:09;26.70;84.30
20815;DHT22;10568;48.176;16.316;2023-05-27T12:52:35;26.30;86.30
20815;DHT22;10568;48.176;16.316;2023-05-27T12:55:04;26.60;88.60
20815;DHT22;10568;48.176;16.316;2023-05-27T12:57:30;26.70;80.20
20815;DHT22;10568;48.176;16.316;2023-05-27T12:59:56;26.40;84.60
20815;DHT22;10568;48.176;16.316;2023-05-27T13:02:22;26.80;83.40
20815;DHT22;10568;48.176;16.316;2023-05-27T13:04:47;27.10;84.60
20815;DHT22;10568;48.176;16.316;2023-05-27T13:07:13;26.90;80.30
20815;DHT22;10568;48.176;16.316;2023-05-27T13:09:42;27.10;80.50
20815;DHT22;10568;48.176;16.316;2023-05-27T13:12:07;27.00;82.90
20815;DHT22;10568;48.176;16.316;2023-05-27T13:14:33;27.20;77.80
20815;DHT22;10568;48.176;16.316;2023-05-27T13:16:59;26.80;75.60
20815;DHT22;10568;48.176;16.316;2023-05-27T13:19:26;26.90;85.70
20815;DHT22;10568;48.176;16.316;2023-05-27T13:21:51;27.10;81.50
20815;DHT22;10568;48.176;16.316;2023-05-27T13:24:17;26.70;83.10
20815;DHT22;10568;48.176;16.316;2023-05-27T13:26:43;26.10;71.60
20815;DHT22;10568;48.176;16.316;2023-05-27T13:29:09;26.60;76.20
20815;DHT22;10568;48.176;16.316;2023-05-27T13:31:35;26.80;79.10
20815;DHT22;10568;48.176;16.316;2023-05-27T13:34:01;27.10;78.90
20815;DHT22;10568;48.176;16.316;2023-05-27T13:36:26;26.90;82.90
20815;DHT22;10568;48.176;16.316;2023-05-27T13:38:52;27.00;77.10
20815;DHT22;10568;48.176;16.316;2023-05-27T13:41:18;26.60;75.60
20815;DHT22;10568;48.176;16.316;2023-05-27T13:43:43;26.00;74.40
20815;DHT22;10568;48.176;16.316;2023-05-27T13:46:09;26.30;72.60
20815;DHT22;10568;48.176;16.316;2023-05-27T13:48:35;25.90;75.10
20815;DHT22;10568;48.176;16.316;2023-05-27T13:51:01;25.50;73.70
20815;DHT22;10568;48.176;16.316;2023-05-27T13:53:27;25.10;78.20
20815;DHT22;10568;48.176;16.316;2023-05-27T13:55:53;25.30;74.40
20815;DHT22;10568;48.176;16.316;2023-05-27T13:58:19;25.30;79.80
20815;DHT22;10568;48.176;16.316;2023-05-27T14:00:45;25.20;71.50
20815;DHT22;10568;48.176;16.316;2023-05-27T14:03:10;25.10;80.30
20815;DHT22;10568;48.176;16.316;2023-05-27T14:05:36;24.80;72.40
20815;DHT22;10568;48.176;16.316;2023-05-27T14:08:02;24.70;78.10
20815;DHT22;10568;48.176;16.316;2023-05-27T14:10:31;24.50;74.90
20815;DHT22;10568;48.176;16.316;2023-05-27T14:12:58;24.20;80.20
20815;DHT22;10568;48.176;16.316;2023-05-27T14:15:23;24.00;80.20
20815;DHT22;10568;48.176;16.316;2023-05-27T14:17:53;24.00;82.30
20815;DHT22;10568;48.176;16.316;2023-05-27T14:20:19;23.80;76.30
20815;DHT22;10568;48.176;16.316;2023-05-27T14:22:45;23.30;76.70
20815;DHT22;10568;48.176;16.316;2023-05-27T14:25:11;23.20;76.90
20815;DHT22;10568;48.176;16.316;2023-05-27T14:27:37;23.20;80.50
20815;DHT22;10568;48.176;16.316;2023-05-27T14:30:04;23.00;82.60
20815;DHT22;10568;48.176;16.316;2023-05-27T14:32:31;22.80;78.30
20815;DHT22;10568;48.176;16.316;2023-05-27T14:34:56;22.70;87.80
20815;DHT22;10568;48.176;16.316;2023-05-27T14:37:22;22.60;82.50
20815;DHT22;10568;48.176;16.316;2023-05-27T14:39:50;22.50;86.70
20815;DHT22;10568;48.176;16.316;2023-05-27T14:42:16;22.40;81.60
20815;DHT22;10568;48.176;16.316;2023-05-27T14:44:41;22.40;83.00
20815;DHT22;10568;48.176;16.316;2023-05-27T14:47:07;22.40;85.50
20815;DHT22;10568;48.176;16.316;2023-05-27T14:49:33;22.40;79.40
20815;DHT22;10568;48.176;16.316;2023-05-27T14:51:59;22.40;81.20
20815;DHT22;10568;48.176;16.316;2023-05-27T14:54:25;22.20;80.30
20815;DHT22;10568;48.176;16.316;2023-05-27T14:56:50;22.20;82.60
20815;DHT22;10568;48.176;16.316;2023-05-27T14:59:16;22.20;81.80
20815;DHT22;10568;48.176;16.316;2023-05-27T15:01:42;22.30;81.50
20815;DHT22;10568;48.176;16.316;2023-05-27T15:04:09;22.10;79.80
20815;DHT22;10568;48.176;16.316;2023-05-27T15:06:35;22.20;83.10
20815;DHT22;10568;48.176;16.316;2023-05-27T15:09:01;22.20;78.70
20815;DHT22;10568;48.176;16.316;2023-05-27T15:11:27;22.10;81.00
20815;DHT22;10568;48.176;16.316;2023-05-27T15:13:52;22.10;80.70
20815;DHT22;10568;48.176;16.316;2023-05-27T15:16:21;22.00;78.70
20815;DHT22;10568;48.176;16.316;2023-05-27T15:18:47;22.20;86.10
20815;DHT22;10568;48.176;16.316;2023-05-27T15:21:12;22.00;81.10